createdAt,value
2019-03-31T00:09:26.496Z,305.2
2019-03-31T00:24:51.517Z,304.7
2019-03-31T00:29:59.763Z,305.1
2019-03-31T00:40:16.340Z,304.5
2019-03-31T00:45:24.662Z,305.7
2019-03-31T00:50:32.999Z,305.9
2019-03-31T01:00:49.768Z,305.7
2019-03-31T01:05:57.988Z,305.4
2019-03-31T01:11:06.411Z,304.9
2019-03-31T01:21:27.445Z,306.1
2019-03-31T01:31:39.660Z,306.1
2019-03-31T01:41:56.303Z,306
2019-03-31T01:47:04.798Z,305.2
2019-03-31T01:57:21.295Z,306.4
2019-03-31T02:07:37.885Z,305.6
2019-03-31T02:12:46.190Z,305.6
2019-03-31T02:23:02.820Z,305.2
2019-03-31T02:33:24.173Z,306.9
2019-03-31T02:43:36.183Z,307.2
2019-03-31T02:53:52.831Z,305.2
2019-03-31T03:04:09.458Z,305.7
2019-03-31T03:24:43.004Z,307.6
2019-03-31T03:34:59.649Z,305.7
2019-03-31T03:55:33.359Z,306.1
2019-03-31T04:05:50.373Z,305.9
2019-03-31T04:31:32.593Z,305.7
2019-03-31T04:36:41.043Z,305.1
2019-03-31T04:41:49.476Z,304.6
2019-03-31T04:46:57.987Z,305.5
2019-03-31T04:57:15.011Z,304.5
2019-03-31T05:07:32.099Z,304.3
2019-03-31T05:12:40.633Z,304.7
2019-03-31T05:17:49.137Z,304.3
2019-03-31T05:22:57.723Z,304.3
2019-03-31T05:33:14.738Z,304.1
2019-03-31T05:38:23.363Z,304.7
2019-03-31T05:58:57.520Z,304.9
2019-03-31T06:04:06.167Z,304.4
2019-03-31T06:19:31.798Z,304.2
2019-03-31T06:29:48.839Z,304.2
2019-03-31T06:34:57.407Z,303.7
2019-03-31T06:40:06.009Z,304
2019-03-31T06:45:14.515Z,304.4
2019-03-31T06:50:23.771Z,304.2
2019-03-31T07:00:40.135Z,303.7
2019-03-31T07:05:48.423Z,303.8
2019-03-31T07:26:21.934Z,303.3
2019-03-31T07:31:33.679Z,304
2019-03-31T07:41:46.734Z,303.5
2019-03-31T07:46:54.795Z,303.3
2019-03-31T07:52:02.955Z,303
2019-03-31T07:57:11.174Z,303
2019-03-31T08:02:19.276Z,302.6
2019-03-31T08:07:27.586Z,302.8
2019-03-31T08:12:35.591Z,303
2019-03-31T08:22:51.934Z,302.5
2019-03-31T08:33:08.109Z,302.4
2019-03-31T08:43:24.430Z,302
2019-03-31T08:48:32.628Z,301.8
2019-03-31T08:58:48.894Z,301.7
2019-03-31T09:03:57.049Z,301.7
2019-03-31T09:14:13.463Z,301.5
2019-03-31T09:24:29.768Z,301.3
2019-03-31T09:29:38.073Z,301.3
2019-03-31T09:34:46.095Z,301.2
2019-03-31T09:50:10.644Z,301
2019-03-31T09:55:18.854Z,301.3
2019-03-31T10:05:35.337Z,301.1
2019-03-31T10:15:51.644Z,301.1
2019-03-31T10:26:07.965Z,301.1
2019-03-31T10:31:16.175Z,301.1
2019-03-31T10:41:34.610Z,301.5
2019-03-31T10:46:40.722Z,301.3
2019-03-31T10:56:57.113Z,301
2019-03-31T11:12:21.622Z,300.9
2019-03-31T11:17:33.338Z,301.3
2019-03-31T11:27:46.303Z,300.8
2019-03-31T11:38:02.451Z,301.1
2019-03-31T11:48:18.825Z,301.1
2019-03-31T11:53:27.073Z,301
2019-03-31T11:58:35.281Z,301.2
2019-03-31T12:03:43.452Z,301
2019-03-31T12:13:59.708Z,300.8
2019-03-31T12:39:40.287Z,300.7
2019-03-31T12:49:56.338Z,300.8
2019-03-31T12:55:04.393Z,300.7
2019-03-31T13:00:12.438Z,300.7
2019-03-31T13:10:28.396Z,300.8
2019-03-31T13:20:44.375Z,300.6
2019-03-31T13:41:16.019Z,300.5
2019-03-31T13:51:31.826Z,300.8
2019-03-31T13:56:39.704Z,300.7
2019-03-31T14:12:03.325Z,300.7
2019-03-31T14:37:42.661Z,300.5
2019-03-31T14:42:50.558Z,300.6
2019-03-31T14:53:06.371Z,301
2019-03-31T15:03:22.071Z,300.9
2019-03-31T15:18:45.738Z,300.7
2019-03-31T15:23:53.613Z,300.7
2019-03-31T15:29:05.123Z,300.6
2019-03-31T15:34:09.487Z,300.7
2019-03-31T15:39:19.447Z,300.9
2019-03-31T15:54:41.297Z,300.7
2019-03-31T15:59:49.228Z,300.7
2019-03-31T16:04:57.160Z,300.8
2019-03-31T16:10:05.001Z,301.2
2019-03-31T16:15:12.971Z,300.7
2019-03-31T16:25:28.808Z,300.8
2019-03-31T16:30:36.783Z,300.9
2019-03-31T16:35:44.773Z,300.6
2019-03-31T16:46:00.527Z,300.5
2019-03-31T16:51:08.439Z,301.3
2019-03-31T16:56:16.432Z,300.6
2019-03-31T17:01:25.271Z,300.4
2019-03-31T17:06:32.182Z,300.7
2019-03-31T17:11:40.078Z,300.7
2019-03-31T17:21:57.007Z,300.8
2019-03-31T17:32:11.734Z,300.6
2019-03-31T17:37:19.758Z,300.6
2019-03-31T17:42:27.659Z,300.8
2019-03-31T17:47:35.649Z,300.5
2019-03-31T18:02:59.397Z,300.4
2019-03-31T18:08:07.407Z,300.5
2019-03-31T18:28:39.697Z,300.5
2019-03-31T18:38:55.891Z,300.5
2019-03-31T18:44:04.226Z,300.6
2019-03-31T18:49:12.455Z,300.6
2019-03-31T18:59:28.679Z,300.6
2019-03-31T19:04:36.928Z,300.6
2019-03-31T19:20:01.787Z,300.8
2019-03-31T19:25:10.197Z,300.8
2019-03-31T19:30:18.497Z,300.8
2019-03-31T19:40:35.307Z,300.8
2019-03-31T19:50:52.103Z,301.1
2019-03-31T19:56:04.085Z,301
2019-03-31T20:01:09.034Z,300.8
2019-03-31T20:06:17.595Z,300.8
2019-03-31T20:11:26.071Z,301.2
2019-03-31T20:21:42.980Z,301.3
2019-03-31T20:32:00.153Z,300.8
2019-03-31T20:42:17.247Z,301
2019-03-31T21:08:00.096Z,300.8
2019-03-31T21:13:08.829Z,300.9
2019-03-31T21:23:26.154Z,301.1
2019-03-31T21:28:34.736Z,300.9
2019-03-31T21:44:00.973Z,300.9
2019-03-31T21:54:18.148Z,300.7
2019-03-31T22:14:53.186Z,300.8
2019-03-31T22:25:10.982Z,300.6
2019-03-31T22:30:19.386Z,300.7
2019-03-31T22:50:54.426Z,300.8
2019-03-31T22:56:03.321Z,300.9
2019-03-31T23:06:20.851Z,300.6
2019-03-31T23:21:47.203Z,300.9
2019-03-31T23:26:56.022Z,300.7
2019-03-31T23:37:13.706Z,300.6
2019-03-31T23:42:22.603Z,300.5
2019-03-31T23:52:40.213Z,300.5
2019-03-31T23:57:49.117Z,300.4
